Time;durP1;ratioP1;P1;durP2;ratioP2;P2;SDS_P1;SDS_P2;PMS_P1;PMS_P2;Temp;Humidity;BMP_temperature;BMP_pressure;BME280_temperature;BME280_humidity;BME280_pressure;Samples;Min_cycle;Max_cycle;Signal;HPM_P1;HPM_P2
2021/07/18 00:01:47;;;;;;;31.70;20.13;;;;;;;24.31;61.22;98511.27;125708;1094;102958;-69
2021/07/18 00:04:20;;;;;;;29.43;18.47;;;;;;;24.29;61.52;98507.12;125659;1095;102942;-69
2021/07/18 00:06:48;;;;;;;28.83;18.07;;;;;;;24.27;61.42;98510.03;125723;1095;103100;-69
2021/07/18 00:09:17;;;;;;;30.30;19.40;;;;;;;24.25;61.63;98503.98;125697;1094;103010;-69
2021/07/18 00:11:45;;;;;;;26.00;18.50;;;;;;;24.23;61.21;98501.48;125727;1093;102922;-69
2021/07/18 00:14:14;;;;;;;29.30;20.10;;;;;;;24.22;61.39;98497.10;125642;1093;102938;-69
2021/07/18 00:16:47;;;;;;;28.27;18.93;;;;;;;24.19;61.58;98497.53;126194;1093;102976;-70
2021/07/18 00:19:16;;;;;;;28.43;18.77;;;;;;;24.16;61.90;98499.85;125648;1097;103399;-70
2021/07/18 00:21:44;;;;;;;29.63;17.57;;;;;;;24.13;61.50;98492.13;125682;1096;102934;-69
2021/07/18 00:24:24;;;;;;;31.70;17.63;;;;;;;24.10;61.41;98498.80;125616;1093;103044;-68
2021/07/18 00:26:52;;;;;;;27.80;17.97;;;;;;;24.04;61.56;98491.53;125669;1096;103434;-69
2021/07/18 00:29:25;;;;;;;39.50;19.53;;;;;;;24.01;61.83;98500.11;125643;1095;103099;-69
2021/07/18 00:31:59;;;;;;;31.33;17.70;;;;;;;24.00;61.98;98501.98;125641;1096;102911;-69
2021/07/18 00:34:28;;;;;;;35.43;18.50;;;;;;;23.96;61.60;98506.13;125650;1096;103013;-69
2021/07/18 00:36:56;;;;;;;31.40;17.60;;;;;;;23.92;61.64;98503.02;125638;1094;102988;-70
2021/07/18 00:39:25;;;;;;;34.40;18.97;;;;;;;23.88;61.92;98500.92;125650;1095;103004;-69
2021/07/18 00:41:54;;;;;;;33.05;17.30;;;;;;;23.85;61.91;98504.91;125680;1096;102919;-69
2021/07/18 00:44:27;;;;;;;31.87;19.10;;;;;;;23.82;61.87;98494.47;125683;1093;103431;-69
2021/07/18 00:46:55;;;;;;;30.10;17.90;;;;;;;23.77;62.17;98497.83;125709;1093;103012;-69
2021/07/18 00:49:28;;;;;;;29.20;19.33;;;;;;;23.74;62.45;98508.26;125691;1093;103094;-69
2021/07/18 00:51:57;;;;;;;32.37;18.90;;;;;;;23.72;62.25;98516.63;125707;1093;103036;-69
2021/07/18 00:54:35;;;;;;;31.07;18.47;;;;;;;23.69;62.58;98510.77;125634;1092;102943;-69
2021/07/18 00:57:09;;;;;;;31.17;18.07;;;;;;;23.62;62.60;98502.64;125643;1091;102914;-69
2021/07/18 00:59:42;;;;;;;27.27;18.23;;;;;;;23.59;62.59;98505.78;125694;1093;103047;-69
2021/07/18 01:02:12;;;;;;;29.53;18.50;;;;;;;23.48;62.62;98510.78;126144;1092;102923;-68
2021/07/18 01:04:45;;;;;;;32.33;18.20;;;;;;;23.39;62.46;98522.92;125669;1091;103074;-68
2021/07/18 01:07:18;;;;;;;;;;;;;;;23.36;62.88;98525.20;125696;1093;103184;-69
2021/07/18 01:09:46;;;;;;;30.20;18.25;;;;;;;23.34;63.00;98528.13;125647;1095;103428;-69
2021/07/18 01:12:22;;;;;;;29.97;19.57;;;;;;;23.34;62.67;98528.95;125668;1096;103004;-68
2021/07/18 01:14:55;;;;;;;31.50;20.20;;;;;;;23.33;62.56;98519.14;125671;1092;102933;-68
2021/07/18 01:17:23;;;;;;;30.50;18.63;;;;;;;23.34;62.77;98525.42;125692;1092;102944;-70
2021/07/18 01:19:52;;;;;;;32.53;18.80;;;;;;;23.29;63.12;98520.59;125726;1092;103012;-68
2021/07/18 01:22:21;;;;;;;30.70;19.03;;;;;;;23.26;62.51;98525.62;125604;1092;103092;-68
2021/07/18 01:24:49;;;;;;;29.93;19.73;;;;;;;23.24;63.20;98527.70;125632;1092;102924;-69
2021/07/18 01:27:22;;;;;;;32.73;18.40;;;;;;;23.22;63.13;98525.20;125694;1092;102942;-69
2021/07/18 01:29:56;;;;;;;31.17;18.80;;;;;;;23.20;63.15;98519.13;125683;1093;102940;-69
2021/07/18 01:32:29;;;;;;;33.40;19.13;;;;;;;23.16;63.38;98521.39;125651;1093;102970;-69
2021/07/18 01:34:57;;;;;;;28.23;18.47;;;;;;;23.14;62.99;98526.19;125610;1093;102918;-69
2021/07/18 01:37:26;;;;;;;28.50;18.53;;;;;;;23.07;63.14;98525.34;125733;1093;103377;-70
2021/07/18 01:39:54;;;;;;;31.37;19.50;;;;;;;22.98;63.58;98522.00;125736;1093;103164;-71
2021/07/18 01:42:24;;;;;;;32.63;19.93;;;;;;;22.93;63.27;98529.91;125708;1093;103009;-69
2021/07/18 01:44:54;;;;;;;34.47;19.10;;;;;;;22.88;63.42;98519.69;125655;1096;103428;-69
2021/07/18 01:47:22;;;;;;;30.40;18.83;;;;;;;22.85;63.81;98519.25;125655;1093;103209;-69
2021/07/18 01:49:50;;;;;;;32.57;19.80;;;;;;;22.82;63.98;98517.79;125712;1093;102941;-69
2021/07/18 01:52:19;;;;;;;32.17;18.30;;;;;;;22.79;63.59;98520.91;125696;1092;103052;-69
2021/07/18 01:54:50;;;;;;;31.17;18.43;;;;;;;22.76;63.78;98510.47;125712;1092;102913;-69
2021/07/18 01:57:19;;;;;;;31.87;20.67;;;;;;;22.74;63.60;98513.41;125682;1093;103655;-69
2021/07/18 01:59:47;;;;;;;28.97;18.83;;;;;;;22.72;63.93;98517.34;125645;1092;102938;-69
2021/07/18 02:02:20;;;;;;;31.27;19.20;;;;;;;22.70;64.17;98509.42;125723;1093;102912;-70
2021/07/18 02:04:49;;;;;;;29.40;19.53;;;;;;;22.69;63.88;98529.44;125672;1093;103451;-68
2021/07/18 02:07:18;;;;;;;32.20;20.07;;;;;;;22.66;63.71;98526.28;125665;1096;103064;-69
2021/07/18 02:09:51;;;;;;;30.10;20.30;;;;;;;22.62;63.92;98542.13;125656;1094;103004;-69
2021/07/18 02:12:19;;;;;;;34.17;20.27;;;;;;;22.60;64.38;98541.49;125641;1093;103026;-72
2021/07/18 02:14:53;;;;;;;33.00;21.77;;;;;;;22.59;64.01;98542.53;125723;1096;103076;-70
2021/07/18 02:17:21;;;;;;;31.40;20.27;;;;;;;22.57;64.06;98547.31;125672;1091;102916;-70
2021/07/18 02:19:59;;;;;;;39.60;20.80;;;;;;;22.55;64.21;98555.66;125711;1093;102939;-70
2021/07/18 02:22:54;;;;;;;33.25;19.40;;;;;;;22.54;64.43;98548.57;125628;1093;103010;-72
2021/07/18 02:25:29;;;;;;;32.73;19.07;;;;;;;22.52;64.25;98545.23;125632;1093;102997;-71
2021/07/18 02:27:57;;;;;;;29.40;17.60;;;;;;;22.50;64.51;98554.58;125671;1093;102910;-71
2021/07/18 02:30:31;;;;;;;29.50;17.93;;;;;;;22.49;64.30;98561.03;125710;1093;103031;-71
2021/07/18 02:33:00;;;;;;;31.80;18.60;;;;;;;22.48;64.60;98553.94;125680;1093;103440;-74
2021/07/18 02:35:33;;;;;;;34.77;18.37;;;;;;;22.45;64.90;98553.30;125694;1092;103097;-71
2021/07/18 02:38:06;;;;;;;;;;;;;;;22.41;64.79;98546.61;125679;1093;102998;-73
2021/07/18 02:40:39;;;;;;;33.40;18.33;;;;;;;22.37;64.82;98558.03;125719;1093;102913;-69
2021/07/18 02:43:07;;;;;;;32.43;18.80;;;;;;;22.36;64.72;98550.94;125648;1093;102935;-70
2021/07/18 02:45:36;;;;;;;32.90;18.70;;;;;;;22.34;64.63;98537.61;125682;1094;102998;-69
2021/07/18 02:48:11;;;;;;;30.85;19.30;;;;;;;22.32;64.77;98545.11;125655;1095;103035;-70
2021/07/18 02:50:40;;;;;;;30.10;18.73;;;;;;;22.31;65.02;98548.84;125680;1096;103056;-71
2021/07/18 02:53:11;;;;;;;31.43;18.80;;;;;;;22.30;64.97;98558.02;125668;1094;103026;-69
2021/07/18 02:55:39;;;;;;;33.67;19.03;;;;;;;22.28;64.88;98558.20;125652;1095;103037;-69
2021/07/18 02:58:08;;;;;;;32.83;19.43;;;;;;;22.27;65.00;98564.65;125661;1095;102916;-69
2021/07/18 03:00:41;;;;;;;28.40;19.30;;;;;;;22.27;64.83;98563.83;125663;1095;103093;-69
2021/07/18 03:03:10;;;;;;;34.10;18.93;;;;;;;22.25;65.26;98572.14;125623;1097;103077;-71
2021/07/18 03:05:43;;;;;;;32.70;18.67;;;;;;;22.24;65.13;98561.52;125692;1096;103163;-68
2021/07/18 03:08:11;;;;;;;32.07;18.00;;;;;;;22.22;64.97;98558.98;125687;1096;103040;-70
2021/07/18 03:10:44;;;;;;;34.13;18.93;;;;;;;22.22;64.96;98558.17;125713;1096;103016;-68
2021/07/18 03:13:17;;;;;;;29.93;18.87;;;;;;;22.20;65.43;98568.37;125638;1096;103025;-69
2021/07/18 03:15:46;;;;;;;35.20;18.47;;;;;;;22.17;65.26;98572.32;125629;1095;103021;-68
2021/07/18 03:18:19;;;;;;;;;;;;;;;22.16;65.63;98562.52;125711;1095;103002;-69
2021/07/18 03:20:52;;;;;;;31.70;17.70;;;;;;;22.12;65.19;98562.06;125668;1096;103010;-69
2021/07/18 03:23:20;;;;;;;35.00;18.63;;;;;;;22.13;65.51;98562.92;125687;1096;103034;-69
2021/07/18 03:25:53;;;;;;;31.40;19.40;;;;;;;22.12;65.39;98570.19;125692;1095;102920;-68
2021/07/18 03:28:23;;;;;;;29.70;18.53;;;;;;;22.13;65.35;98560.21;125970;1096;103028;-68
2021/07/18 03:30:52;;;;;;;30.17;18.20;;;;;;;22.14;65.49;98556.47;126831;1095;102916;-68
2021/07/18 03:33:25;;;;;;;32.93;17.90;;;;;;;22.13;65.42;98558.33;125673;1095;102945;-68
2021/07/18 03:35:53;;;;;;;29.33;17.20;;;;;;;22.12;65.72;98553.94;125672;1096;102998;-69
2021/07/18 03:38:21;;;;;;;30.23;18.17;;;;;;;22.11;65.57;98563.10;125640;1094;103138;-68
2021/07/18 03:40:54;;;;;;;29.83;18.63;;;;;;;22.08;65.50;98558.08;125672;1096;103205;-69
2021/07/18 03:43:22;;;;;;;;;;;;;;;22.08;66.04;98557.26;125684;1094;102916;-67
2021/07/18 03:45:51;;;;;;;30.03;17.17;;;;;;;22.07;65.56;98561.83;125670;1095;102922;-69
2021/07/18 03:48:20;;;;;;;28.63;17.13;;;;;;;22.08;65.84;98560.78;126072;1096;103011;-69
2021/07/18 03:50:52;;;;;;;31.47;17.40;;;;;;;22.11;65.59;98563.10;125667;1095;103018;-70
2021/07/18 03:53:25;;;;;;;;;;;;;;;22.11;66.03;98562.28;125753;1095;103160;-71
2021/07/18 03:55:53;;;;;;;29.77;16.33;;;;;;;22.12;65.94;98561.25;125708;1096;102996;-68
2021/07/18 03:58:21;;;;;;;32.07;17.73;;;;;;;22.14;65.60;98561.88;125674;1094;102941;-69
2021/07/18 04:00:49;;;;;;;33.43;17.27;;;;;;;22.16;66.11;98557.11;125690;1095;102921;-69
2021/07/18 04:03:22;;;;;;;;;;;;;;;22.18;66.10;98563.16;125689;1096;103052;-68
2021/07/18 04:06:02;;;;;;;28.10;16.47;;;;;;;22.19;66.04;98561.27;125680;1096;102937;-68
2021/07/18 04:08:35;;;;;;;34.60;17.80;;;;;;;22.20;65.99;98568.37;125662;1095;103075;-70
2021/07/18 04:11:04;;;;;;;34.00;18.23;;;;;;;22.20;65.86;98574.64;125680;1095;103055;-70
2021/07/18 04:13:32;;;;;;;29.53;17.97;;;;;;;22.19;65.82;98578.38;125680;1095;102919;-69
2021/07/18 04:16:07;;;;;;;30.40;17.60;;;;;;;22.20;66.27;98574.64;126413;1096;103012;-69
2021/07/18 04:18:36;;;;;;;37.17;18.07;;;;;;;22.22;66.07;98555.46;127712;1094;100926;-70
2021/07/18 04:21:09;;;;;;;;;;;;;;;22.24;66.40;98565.05;125694;1095;102942;-69
2021/07/18 04:23:38;;;;;;;30.20;16.87;;;;;;;22.25;66.15;98574.02;126688;1095;101411;-71
2021/07/18 04:26:06;;;;;;;28.63;16.67;;;;;;;22.28;65.89;98565.50;125703;1094;103541;-69
2021/07/18 04:28:35;;;;;;;30.70;17.30;;;;;;;22.31;66.21;98560.50;125779;1095;103538;-69
2021/07/18 04:31:03;;;;;;;32.83;18.30;;;;;;;22.34;65.97;98563.85;125655;1095;103015;-67
2021/07/18 04:33:36;;;;;;;;;;;;;;;22.36;66.74;98568.05;125691;1095;102938;-70
2021/07/18 04:36:14;;;;;;;31.28;15.40;;;;;;;22.37;66.47;98567.02;125699;1095;102939;-67
2021/07/18 04:38:43;;;;;;;31.37;17.63;;;;;;;22.42;66.33;98560.98;125702;1096;102940;-69
2021/07/18 04:41:11;;;;;;;27.50;17.25;;;;;;;22.45;66.24;98556.02;125676;1096;104498;-70
2021/07/18 04:43:40;;;;;;;33.43;18.27;;;;;;;22.50;66.12;98562.70;125597;1095;103535;-70
2021/07/18 04:46:09;;;;;;;29.90;17.80;;;;;;;22.54;66.13;98561.27;125678;1094;102922;-69
2021/07/18 04:48:37;;;;;;;33.63;17.70;;;;;;;22.54;66.21;98562.13;125767;1095;103064;-72
2021/07/18 04:51:05;;;;;;;32.40;18.57;;;;;;;22.59;66.63;98572.34;125742;1095;103110;-71
2021/07/18 04:53:34;;;;;;;34.50;18.33;;;;;;;22.61;66.64;98559.43;125733;1096;102990;-68
2021/07/18 04:56:02;;;;;;;32.23;18.20;;;;;;;22.64;66.39;98567.16;125650;1095;103080;-70
2021/07/18 04:58:31;;;;;;;34.43;17.83;;;;;;;22.67;66.15;98564.05;125721;1095;102938;-70
2021/07/18 05:00:59;;;;;;;35.13;18.30;;;;;;;22.72;66.46;98574.27;125698;1095;103093;-68
2021/07/18 05:03:27;;;;;;;35.87;19.00;;;;;;;22.74;66.38;98574.90;125697;1096;103007;-69
2021/07/18 05:06:05;;;;;;;29.10;18.03;;;;;;;22.76;66.47;98575.53;125702;1096;103138;-69
2021/07/18 05:08:42;;;;;;;31.47;18.90;;;;;;;22.76;66.49;98575.53;125648;1096;103064;-70
2021/07/18 05:11:15;;;;;;;31.33;18.20;;;;;;;22.75;66.37;98579.28;125668;1096;103528;-74
2021/07/18 05:13:43;;;;;;;;;;;;;;;22.73;66.79;98575.94;125691;1095;103001;-71
2021/07/18 05:16:21;;;;;;;28.98;16.85;;;;;;;22.74;66.23;98577.61;125699;1096;102948;-70
2021/07/18 05:18:49;;;;;;;30.13;16.80;;;;;;;22.78;66.27;98584.30;125712;1096;103033;-70
2021/07/18 05:21:17;;;;;;;32.10;18.77;;;;;;;22.83;66.64;98587.24;125625;1096;102940;-71
2021/07/18 05:23:46;;;;;;;34.33;18.30;;;;;;;22.86;66.56;98585.98;125734;1095;103039;-69
2021/07/18 05:26:14;;;;;;;43.43;20.67;;;;;;;22.90;66.24;98587.25;125671;1095;103018;-70
2021/07/18 05:28:47;;;;;;;30.80;17.87;;;;;;;22.95;66.86;98594.80;125691;1096;103000;-70
2021/07/18 05:31:16;;;;;;;32.33;17.00;;;;;;;22.99;66.92;98587.94;125728;1096;102998;-70
2021/07/18 05:33:44;;;;;;;30.43;16.73;;;;;;;23.04;66.59;98579.98;125721;1096;103081;-69
2021/07/18 05:36:12;;;;;;;30.27;16.57;;;;;;;23.09;66.78;98590.25;125709;1097;102941;-70
2021/07/18 05:38:41;;;;;;;36.63;18.90;;;;;;;23.15;66.87;98595.67;125661;1097;103419;-70
2021/07/18 05:41:09;;;;;;;36.00;17.40;;;;;;;23.20;66.71;98600.50;125742;1097;102985;-69
2021/07/18 05:43:37;;;;;;;32.33;18.77;;;;;;;23.25;66.43;98597.19;125742;1097;102998;-71
2021/07/18 05:46:06;;;;;;;34.67;16.63;;;;;;;23.29;66.41;98601.17;125621;1097;102918;-71
2021/07/18 05:48:38;;;;;;;;;;;;;;;23.32;66.93;98590.73;125724;1094;103012;-68
2021/07/18 05:51:07;;;;;;;33.73;17.53;;;;;;;23.38;66.61;98585.52;125640;1096;102938;-72
2021/07/18 05:53:35;;;;;;;30.77;17.53;;;;;;;23.46;66.84;98594.29;126692;1096;101798;-70
2021/07/18 05:56:04;;;;;;;31.57;18.17;;;;;;;23.55;66.44;98594.09;126353;1095;103026;-73
2021/07/18 05:58:32;;;;;;;31.53;18.43;;;;;;;23.62;66.84;98592.23;125625;1095;103057;-74
2021/07/18 06:01:01;;;;;;;30.13;18.27;;;;;;;23.64;66.77;98580.09;125655;1095;103418;-70
2021/07/18 06:03:29;;;;;;;33.80;18.93;;;;;;;23.70;66.65;98583.88;126209;1093;102941;-71
2021/07/18 06:05:58;;;;;;;32.63;17.70;;;;;;;23.79;66.86;98587.21;126443;1093;102942;-71
2021/07/18 06:08:26;;;;;;;33.13;16.80;;;;;;;23.86;66.98;98579.05;125711;1093;103035;-71
2021/07/18 06:10:54;;;;;;;27.35;16.25;;;;;;;23.92;66.58;98591.79;125688;1093;103010;-70
2021/07/18 06:13:22;;;;;;;31.00;17.07;;;;;;;23.99;66.92;98594.55;125849;1093;102994;-72
2021/07/18 06:15:51;;;;;;;31.43;17.00;;;;;;;24.07;66.52;98591.59;125694;1096;103064;-70
2021/07/18 06:18:19;;;;;;;30.80;16.97;;;;;;;24.14;66.68;98597.03;125721;1094;102882;-72
2021/07/18 06:20:47;;;;;;;34.63;17.67;;;;;;;24.21;66.54;98593.25;125765;1093;103029;-71
2021/07/18 06:23:16;;;;;;;32.47;16.50;;;;;;;24.30;66.75;98593.84;125748;1096;102948;-69
2021/07/18 06:26:05;;;;;;;30.30;16.43;;;;;;;24.40;66.63;98587.14;125725;1093;103368;-70
2021/07/18 06:28:42;;;;;;;27.80;15.83;;;;;;;24.58;66.01;98605.48;125639;1093;102908;-70
2021/07/18 06:31:13;;;;;;;32.17;17.37;;;;;;;24.74;65.94;98596.04;125714;1095;103087;-70
2021/07/18 06:33:42;;;;;;;26.83;15.23;;;;;;;24.94;66.31;98598.67;125737;1092;103065;-71
2021/07/18 06:36:11;;;;;;;32.50;17.63;;;;;;;25.16;66.08;98609.24;125712;1093;102994;-70
2021/07/18 06:38:40;;;;;;;31.70;16.73;;;;;;;25.30;66.15;98597.20;125775;1093;102965;-70
2021/07/18 06:41:17;;;;;;;34.93;16.60;;;;;;;25.44;66.10;98600.73;125727;1093;102913;-68
2021/07/18 06:43:46;;;;;;;29.30;16.27;;;;;;;25.55;66.41;98597.27;125714;1091;103015;-68
2021/07/18 06:46:33;;;;;;;29.97;15.57;;;;;;;25.59;66.57;98605.00;125715;1092;103428;-68
2021/07/18 06:49:03;;;;;;;29.57;16.00;;;;;;;25.66;66.40;98594.89;125678;1093;103144;-68
2021/07/18 06:51:32;;;;;;;33.90;16.83;;;;;;;25.73;66.19;98594.83;125733;1093;103042;-67
2021/07/18 06:54:00;;;;;;;30.90;16.27;;;;;;;25.76;65.91;98594.39;125698;1092;103008;-68
2021/07/18 06:56:31;;;;;;;33.73;16.37;;;;;;;25.82;66.41;98596.23;125685;1095;103065;-68
2021/07/18 06:59:04;;;;;;;28.97;16.23;;;;;;;25.94;65.87;98601.77;125693;1094;103019;-69
2021/07/18 07:01:33;;;;;;;32.93;16.07;;;;;;;26.03;66.02;98603.16;126781;1093;103146;-69
2021/07/18 07:04:06;;;;;;;29.87;15.50;;;;;;;26.23;65.67;98602.18;125786;1095;102939;-69
2021/07/18 07:06:39;;;;;;;28.20;14.90;;;;;;;26.73;64.92;98599.28;125729;1096;103084;-68
2021/07/18 07:09:08;;;;;;;33.00;15.00;;;;;;;27.63;64.46;98605.02;125775;1095;103007;-70
2021/07/18 07:11:36;;;;;;;30.70;14.10;;;;;;;28.59;64.60;98605.86;125805;1096;103020;-70
2021/07/18 07:14:04;;;;;;;28.47;15.07;;;;;;;29.60;64.42;98605.63;125700;1096;103166;-70
2021/07/18 07:16:33;;;;;;;27.60;14.30;;;;;;;30.65;64.75;98605.03;125732;1095;102998;-69
2021/07/18 07:19:01;;;;;;;26.87;12.70;;;;;;;31.59;64.30;98604.13;125682;1096;103023;-68
2021/07/18 07:21:34;;;;;;;33.30;13.35;;;;;;;31.69;64.26;98603.41;125708;1097;103012;-68
2021/07/18 07:24:12;;;;;;;28.60;13.03;;;;;;;31.46;64.32;98619.13;125720;1097;102964;-68
2021/07/18 07:26:41;;;;;;;26.17;13.13;;;;;;;31.33;64.36;98610.23;125698;1096;102916;-68
2021/07/18 07:29:09;;;;;;;24.23;12.27;;;;;;;31.30;63.80;98604.41;125706;1094;103010;-69
2021/07/18 07:31:44;;;;;;;29.53;13.20;;;;;;;31.50;63.36;98606.53;125608;1096;102906;-69
2021/07/18 07:34:13;;;;;;;24.60;11.80;;;;;;;32.15;62.67;98601.03;125699;1095;103453;-70
2021/07/18 07:36:44;;;;;;;24.63;10.93;;;;;;;32.91;62.33;98598.13;125659;1095;103416;-69
2021/07/18 07:39:17;;;;;;;25.37;11.43;;;;;;;33.50;62.24;98602.41;125701;1096;103053;-70
2021/07/18 07:41:46;;;;;;;33.73;12.70;;;;;;;33.70;62.34;98595.23;125685;1095;102919;-71
2021/07/18 07:44:14;;;;;;;30.10;11.07;;;;;;;33.75;62.25;98603.50;125717;1096;102994;-70
2021/07/18 07:46:49;;;;;;;29.13;11.83;;;;;;;33.74;61.68;98607.36;125708;1095;103065;-69
2021/07/18 07:49:17;;;;;;;25.53;11.50;;;;;;;34.23;60.56;98608.73;125675;1096;102914;-69
2021/07/18 07:51:46;;;;;;;27.63;11.87;;;;;;;34.87;60.08;98606.32;125649;1096;102997;-69
2021/07/18 07:54:14;;;;;;;30.77;12.03;;;;;;;35.58;59.89;98597.92;125613;1096;103005;-67
2021/07/18 07:56:47;;;;;;;26.90;11.80;;;;;;;36.08;59.65;98590.58;125627;1095;103012;-67
2021/07/18 07:59:18;;;;;;;26.07;12.30;;;;;;;36.67;59.22;98601.59;125677;1094;103057;-67
2021/07/18 08:01:46;;;;;;;25.10;11.43;;;;;;;36.99;58.63;98597.31;125680;1094;103037;-69
2021/07/18 08:04:15;;;;;;;24.20;10.63;;;;;;;36.50;58.80;98605.66;125614;1095;103029;-68
2021/07/18 08:06:44;;;;;;;23.93;10.77;;;;;;;35.85;58.15;98602.10;125634;1095;102991;-68
2021/07/18 08:09:14;;;;;;;27.07;11.87;;;;;;;35.31;57.68;98606.66;125616;1095;103039;-68
2021/07/18 08:11:44;;;;;;;28.23;11.43;;;;;;;35.70;57.05;98604.99;125647;1095;102943;-69
2021/07/18 08:14:17;;;;;;;27.73;11.00;;;;;;;35.94;56.59;98607.83;125605;1095;103031;-69
2021/07/18 08:16:45;;;;;;;26.60;11.57;;;;;;;36.44;56.12;98601.26;125527;1095;103015;-70
2021/07/18 08:19:13;;;;;;;31.07;11.43;;;;;;;36.56;55.95;98610.02;127014;1094;102962;-69
2021/07/18 08:21:44;;;;;;;27.73;11.23;;;;;;;36.13;55.46;98615.44;126586;1094;102920;-70
2021/07/18 08:24:16;;;;;;;26.33;11.20;;;;;;;35.72;55.05;98617.44;125657;1095;102916;-70
2021/07/18 08:26:44;;;;;;;27.87;12.50;;;;;;;35.23;55.15;98618.31;125605;1094;103034;-68
2021/07/18 08:29:13;;;;;;;25.77;11.93;;;;;;;34.77;54.46;98624.88;125764;1094;103237;-68
2021/07/18 08:31:41;;;;;;;25.90;11.53;;;;;;;34.29;54.33;98620.58;125709;1095;102941;-69
2021/07/18 08:34:12;;;;;;;29.67;12.30;;;;;;;34.00;53.60;98621.19;125663;1095;102940;-68
2021/07/18 08:36:40;;;;;;;29.73;12.40;;;;;;;33.55;53.34;98613.45;125678;1095;102916;-68
2021/07/18 08:39:09;;;;;;;27.83;12.87;;;;;;;33.18;52.81;98614.47;125637;1095;102945;-76
2021/07/18 08:41:45;;;;;;;25.90;12.43;;;;;;;32.95;52.75;98615.78;125599;1094;103000;-70
2021/07/18 08:44:19;;;;;;;26.20;12.83;;;;;;;32.98;52.39;98620.75;125677;1097;103034;-69
2021/07/18 08:46:48;;;;;;;27.00;12.50;;;;;;;33.50;51.90;98629.13;125660;1097;103028;-70
2021/07/18 08:49:18;;;;;;;28.85;12.40;;;;;;;34.03;52.23;98626.16;125573;1095;103003;-68
2021/07/18 08:51:47;;;;;;;24.43;11.90;;;;;;;34.65;52.02;98620.50;125632;1094;103049;-68
2021/07/18 08:54:17;;;;;;;26.57;12.83;;;;;;;35.17;51.45;98628.58;125569;1095;103048;-68
2021/07/18 08:56:48;;;;;;;25.70;11.53;;;;;;;35.61;51.58;98619.47;125669;1095;103081;-72
2021/07/18 08:59:16;;;;;;;29.77;11.90;;;;;;;36.11;51.17;98614.91;125646;1095;102916;-70
2021/07/18 09:01:46;;;;;;;25.90;11.65;;;;;;;36.30;50.75;98615.79;126548;1095;102911;-70
2021/07/18 09:04:15;;;;;;;29.50;12.37;;;;;;;36.39;50.74;98621.53;125642;1092;103223;-69
2021/07/18 09:06:51;;;;;;;24.63;11.80;;;;;;;36.77;50.46;98609.74;125684;1093;103008;-68
2021/07/18 09:09:24;;;;;;;27.93;12.10;;;;;;;36.96;50.35;98606.22;125626;1096;103004;-81
2021/07/18 09:12:07;;;;;;;31.70;13.63;;;;;;;36.82;49.92;98609.68;125789;1092;102972;-77
2021/07/18 09:14:44;;;;;;;27.67;12.57;;;;;;;36.45;49.62;98603.75;125684;1093;102915;-68
2021/07/18 09:17:21;;;;;;;29.33;13.50;;;;;;;36.11;49.67;98607.41;125614;1093;102965;-68
2021/07/18 09:19:49;;;;;;;37.00;13.03;;;;;;;35.72;49.50;98598.07;125605;1093;102907;-67
2021/07/18 09:22:26;;;;;;;27.00;12.67;;;;;;;35.29;49.15;98608.88;125722;1093;102911;-67
2021/07/18 09:25:00;;;;;;;29.07;12.10;;;;;;;35.07;48.44;98604.57;125629;1092;102929;-68
2021/07/18 09:27:34;;;;;;;31.23;12.60;;;;;;;34.75;48.87;98605.00;125636;1093;102923;-68
2021/07/18 09:30:12;;;;;;;26.30;12.53;;;;;;;34.49;48.88;98608.69;125687;1093;102916;-67
2021/07/18 09:32:47;;;;;;;26.50;11.47;;;;;;;34.18;48.30;98619.78;125555;1093;103188;-67
2021/07/18 09:35:18;;;;;;;27.20;11.77;;;;;;;34.16;48.32;98615.63;125658;1093;102928;-67
2021/07/18 09:37:49;;;;;;;23.00;10.90;;;;;;;34.29;47.95;98609.55;125523;1091;102925;-69
2021/07/18 09:40:25;;;;;;;28.30;11.67;;;;;;;34.46;47.81;98602.88;125824;1093;103100;-68
2021/07/18 09:43:01;;;;;;;34.30;13.83;;;;;;;34.56;47.33;98608.38;125708;1093;103041;-68
2021/07/18 09:45:31;;;;;;;40.93;14.90;;;;;;;34.76;47.94;98603.89;125616;1093;103094;-69
2021/07/18 09:48:09;;;;;;;31.27;12.13;;;;;;;34.82;47.57;98605.53;125661;1095;102965;-68
2021/07/18 09:50:47;;;;;;;26.70;11.90;;;;;;;34.98;47.73;98603.55;125649;1093;102941;-68
2021/07/18 09:53:27;;;;;;;24.50;11.50;;;;;;;35.22;47.53;98595.39;125722;1092;102916;-67
2021/07/18 09:55:55;;;;;;;33.27;13.20;;;;;;;34.92;47.06;98586.12;125662;1093;102932;-68
2021/07/18 09:58:34;;;;;;;27.37;12.07;;;;;;;34.59;47.33;98596.77;125623;1093;103231;-67
2021/07/18 10:01:08;;;;;;;24.95;11.05;;;;;;;34.23;46.53;98603.22;125682;1093;102993;-69
2021/07/18 10:03:48;;;;;;;32.17;11.87;;;;;;;34.05;47.18;98606.55;125638;1096;103026;-70
2021/07/18 10:06:23;;;;;;;27.75;11.55;;;;;;;33.78;46.58;98605.71;125679;1095;103007;-69
2021/07/18 10:09:05;;;;;;;27.70;12.00;;;;;;;33.56;46.38;98597.72;125642;1096;102951;-69
2021/07/18 10:11:33;;;;;;;29.33;11.63;;;;;;;33.33;46.71;98599.88;125591;1095;102945;-70
2021/07/18 10:14:07;;;;;;;27.87;12.23;;;;;;;33.10;46.54;98602.03;125674;1095;103039;-70
2021/07/18 10:16:37;;;;;;;31.73;17.70;;;;;;;32.84;46.13;98603.06;125639;1095;102919;-69
2021/07/18 10:19:11;;;;;;;31.00;13.90;;;;;;;32.65;46.03;98603.49;125717;1095;102916;-70
2021/07/18 10:21:43;;;;;;;29.87;13.07;;;;;;;32.42;46.20;98602.01;125668;1097;103031;-70
2021/07/18 10:24:14;;;;;;;26.73;11.58;;;;;;;32.32;46.31;98598.13;125645;1094;102984;-70
2021/07/18 10:26:46;;;;;;;26.57;12.73;;;;;;;32.24;46.22;98595.84;125635;1096;103022;-69
2021/07/18 10:29:20;;;;;;;26.40;13.20;;;;;;;32.09;46.19;98596.58;125646;1095;102895;-69
2021/07/18 10:31:54;;;;;;;27.70;12.90;;;;;;;31.91;46.20;98595.90;125705;1096;102969;-69
2021/07/18 10:34:35;;;;;;;29.27;13.40;;;;;;;31.80;46.23;98602.41;125633;1096;103004;-70
2021/07/18 10:37:13;;;;;;;25.80;12.83;;;;;;;31.69;46.02;98593.22;125637;1096;102920;-70
2021/07/18 10:39:44;;;;;;;33.77;15.33;;;;;;;31.59;46.20;98593.13;125609;1096;102999;-68
2021/07/18 10:42:34;;;;;;;34.63;15.60;;;;;;;31.53;46.26;98581.28;125582;1095;102994;-71
2021/07/18 10:45:16;;;;;;;32.75;14.45;;;;;;;31.40;46.47;98587.19;125697;1096;102920;-69
2021/07/18 10:48:06;;;;;;;29.50;14.25;;;;;;;31.35;46.24;98576.99;125640;1096;103103;-69
2021/07/18 10:50:43;;;;;;;29.43;13.47;;;;;;;31.31;46.16;98579.45;125654;1095;103088;-68
2021/07/18 10:53:24;;;;;;;40.68;18.98;;;;;;;31.28;46.21;98570.88;125626;1094;102919;-69
2021/07/18 10:56:01;;;;;;;33.17;15.93;;;;;;;31.17;46.37;98562.56;125656;1096;102919;-69
2021/07/18 10:58:38;;;;;;;32.57;17.47;;;;;;;31.09;46.37;98560.25;125611;1095;102954;-69
2021/07/18 11:01:09;;;;;;;35.45;18.50;;;;;;;31.08;46.36;98557.74;125615;1096;103177;-70
2021/07/18 11:03:44;;;;;;;29.93;17.57;;;;;;;31.07;46.92;98554.19;125659;1093;103364;-72
2021/07/18 11:06:22;;;;;;;28.70;15.55;;;;;;;31.05;46.88;98550.86;125605;1093;102948;-71
2021/07/18 11:09:06;;;;;;;29.20;15.43;;;;;;;30.98;46.81;98551.05;125669;1093;103004;-71
2021/07/18 11:11:51;;;;;;;28.23;15.10;;;;;;;30.99;47.14;98552.70;125601;1093;102917;-68
2021/07/18 11:14:25;;;;;;;25.23;14.93;;;;;;;30.96;47.30;98547.77;125741;1092;103030;-69
2021/07/18 11:16:58;;;;;;;30.37;14.87;;;;;;;30.92;47.37;98546.63;125695;1092;102955;-70
2021/07/18 11:19:35;;;;;;;;;;;;;;;30.84;47.19;98553.38;125712;1093;103153;-70
2021/07/18 11:22:15;;;;;;;30.47;15.40;;;;;;;30.62;47.28;98553.40;125670;1093;103048;-69
2021/07/18 11:24:57;;;;;;;28.10;16.67;;;;;;;30.54;47.28;98562.08;125636;1093;103454;-69